sensor_id;sensor_type;location;lat;lon;timestamp;pressure;altitude;pressure_sealevel;temperature;humidity
55604;BME280;41468;48.838;9.330;2024-03-02T00:01:40;97197.84;;;6.66;100.00
55604;BME280;41468;48.838;9.330;2024-03-02T00:04:07;97188.50;;;6.63;100.00
55604;BME280;41468;48.838;9.330;2024-03-02T00:06:34;97194.78;;;6.67;100.00
55604;BME280;41468;48.838;9.330;2024-03-02T00:09:01;97185.06;;;6.66;100.00
55604;BME280;41468;48.838;9.330;2024-03-02T00:11:28;97192.00;;;6.63;100.00
55604;BME280;41468;48.838;9.330;2024-03-02T00:14:05;97194.47;;;6.76;100.00
55604;BME280;41468;48.838;9.330;2024-03-02T00:16:32;97197.63;;;6.78;100.00
55604;BME280;41468;48.838;9.330;2024-03-02T00:19:03;97195.72;;;6.82;100.00
55604;BME280;41468;48.838;9.330;2024-03-02T00:21:32;97198.53;;;6.89;100.00
55604;BME280;41468;48.838;9.330;2024-03-02T00:24:17;97204.69;;;6.86;100.00
55604;BME280;41468;48.838;9.330;2024-03-02T00:26:46;97200.00;;;6.83;100.00
55604;BME280;41468;48.838;9.330;2024-03-02T00:29:16;97195.56;;;6.68;100.00
55604;BME280;41468;48.838;9.330;2024-03-02T00:31:44;97195.72;;;6.82;100.00
55604;BME280;41468;48.838;9.330;2024-03-02T00:34:12;97201.44;;;6.73;100.00
55604;BME280;41468;48.838;9.330;2024-03-02T00:36:40;97200.75;;;6.80;100.00
55604;BME280;41468;48.838;9.330;2024-03-02T00:39:07;97198.06;;;6.83;100.00
55604;BME280;41468;48.838;9.330;2024-03-02T00:41:34;97205.09;;;6.88;100.00
55604;BME280;41468;48.838;9.330;2024-03-02T00:44:04;97195.44;;;6.91;100.00
55604;BME280;41468;48.838;9.330;2024-03-02T00:46:34;97200.03;;;6.86;100.00
55604;BME280;41468;48.838;9.330;2024-03-02T00:49:03;97203.50;;;6.83;100.00
55604;BME280;41468;48.838;9.330;2024-03-02T00:51:32;97197.31;;;6.86;100.00
55604;BME280;41468;48.838;9.330;2024-03-02T00:54:11;97203.81;;;6.78;100.00
55604;BME280;41468;48.838;9.330;2024-03-02T00:56:37;97210.31;;;6.70;100.00
55604;BME280;41468;48.838;9.330;2024-03-02T00:59:04;97200.56;;;6.66;100.00
55604;BME280;41468;48.838;9.330;2024-03-02T01:01:31;97201.34;;;6.66;100.00
55604;BME280;41468;48.838;9.330;2024-03-02T01:03:58;97197.28;;;6.83;100.00
55604;BME280;41468;48.838;9.330;2024-03-02T01:06:25;97195.34;;;6.83;100.00
55604;BME280;41468;48.838;9.330;2024-03-02T01:08:51;97203.78;;;6.75;100.00
55604;BME280;41468;48.838;9.330;2024-03-02T01:11:23;97202.66;;;6.79;100.00
55604;BME280;41468;48.838;9.330;2024-03-02T01:13:55;97193.84;;;6.86;100.00
55604;BME280;41468;48.838;9.330;2024-03-02T01:16:27;97197.19;;;6.76;100.00
55604;BME280;41468;48.838;9.330;2024-03-02T01:18:59;97198.06;;;6.83;100.00
55604;BME280;41468;48.838;9.330;2024-03-02T01:21:31;97196.88;;;6.81;100.00
55604;BME280;41468;48.838;9.330;2024-03-02T01:24:03;97199.63;;;6.84;100.00
55604;BME280;41468;48.838;9.330;2024-03-02T01:26:35;97191.53;;;6.88;100.00
55604;BME280;41468;48.838;9.330;2024-03-02T01:29:07;97191.03;;;6.79;100.00
55604;BME280;41468;48.838;9.330;2024-03-02T01:31:34;97183.84;;;6.94;100.00
55604;BME280;41468;48.838;9.330;2024-03-02T01:34:01;97196.28;;;6.98;100.00
55604;BME280;41468;48.838;9.330;2024-03-02T01:36:28;97196.53;;;6.82;100.00
55604;BME280;41468;48.838;9.330;2024-03-02T01:38:54;97186.44;;;6.83;100.00
55604;BME280;41468;48.838;9.330;2024-03-02T01:41:21;97191.03;;;6.79;100.00
55604;BME280;41468;48.838;9.330;2024-03-02T01:43:48;97191.44;;;6.81;100.00
55604;BME280;41468;48.838;9.330;2024-03-02T01:46:15;97192.59;;;6.80;100.00
55604;BME280;41468;48.838;9.330;2024-03-02T01:48:41;97201.66;;;6.91;100.00
55604;BME280;41468;48.838;9.330;2024-03-02T01:51:08;97192.13;;;6.74;100.00
55604;BME280;41468;48.838;9.330;2024-03-02T01:53:35;97194.06;;;6.74;100.00
55604;BME280;41468;48.838;9.330;2024-03-02T01:56:02;97200.56;;;6.66;100.00
55604;BME280;41468;48.838;9.330;2024-03-02T01:58:29;97199.88;;;6.72;100.00
55604;BME280;41468;48.838;9.330;2024-03-02T02:00:55;97198.72;;;6.73;100.00
55604;BME280;41468;48.838;9.330;2024-03-02T02:03:22;97195.78;;;6.85;100.00
55604;BME280;41468;48.838;9.330;2024-03-02T02:05:49;97186.06;;;6.84;100.00
55604;BME280;41468;48.838;9.330;2024-03-02T02:08:16;97188.44;;;6.90;100.00
55604;BME280;41468;48.838;9.330;2024-03-02T02:10:43;97186.03;;;6.81;100.00
55604;BME280;41468;48.838;9.330;2024-03-02T02:13:10;97191.75;;;6.72;100.00
55604;BME280;41468;48.838;9.330;2024-03-02T02:31:48;97168.31;;;6.00;100.00
55604;BME280;41468;48.838;9.330;2024-03-02T02:34:21;97168.84;;;5.86;100.00
55604;BME280;41468;48.838;9.330;2024-03-02T02:36:54;97168.56;;;5.91;100.00
55604;BME280;41468;48.838;9.330;2024-03-02T02:39:27;97167.22;;;5.82;100.00
55604;BME280;41468;48.838;9.330;2024-03-02T02:42:00;97173.56;;;5.66;100.00
55604;BME280;41468;48.838;9.330;2024-03-02T02:44:35;97162.63;;;5.59;100.00
55604;BME280;41468;48.838;9.330;2024-03-02T02:47:08;97157.53;;;5.54;100.00
55604;BME280;41468;48.838;9.330;2024-03-02T02:49:40;97150.66;;;5.37;100.00
55604;BME280;41468;48.838;9.330;2024-03-02T02:52:14;97153.59;;;5.28;100.00
55604;BME280;41468;48.838;9.330;2024-03-02T02:54:47;97154.38;;;5.29;100.00
55604;BME280;41468;48.838;9.330;2024-03-02T02:57:20;97151.19;;;5.23;100.00
55604;BME280;41468;48.838;9.330;2024-03-02T02:59:53;97141.81;;;5.17;100.00
55604;BME280;41468;48.838;9.330;2024-03-02T03:02:27;97155.41;;;4.98;100.00
55604;BME280;41468;48.838;9.330;2024-03-02T03:05:00;97156.16;;;4.98;100.00
55604;BME280;41468;48.838;9.330;2024-03-02T03:07:33;97154.69;;;5.01;100.00
55604;BME280;41468;48.838;9.330;2024-03-02T03:10:09;97153.50;;;5.21;100.00
55604;BME280;41468;48.838;9.330;2024-03-02T03:12:42;97152.06;;;5.27;100.00
55604;BME280;41468;48.838;9.330;2024-03-02T03:15:16;97152.00;;;5.24;100.00
55604;BME280;41468;48.838;9.330;2024-03-02T03:17:49;97159.28;;;5.43;100.00
55604;BME280;41468;48.838;9.330;2024-03-02T03:20:23;97148.31;;;5.36;100.00
55604;BME280;41468;48.838;9.330;2024-03-02T03:22:57;97154.84;;;5.35;100.00
55604;BME280;41468;48.838;9.330;2024-03-02T03:25:30;97156.13;;;5.41;100.00
55604;BME280;41468;48.838;9.330;2024-03-02T03:28:03;97158.06;;;5.40;100.00
55604;BME280;41468;48.838;9.330;2024-03-02T03:30:39;97156.22;;;5.21;100.00
55604;BME280;41468;48.838;9.330;2024-03-02T03:33:12;97160.53;;;5.26;100.00
55604;BME280;41468;48.838;9.330;2024-03-02T03:35:45;97153.38;;;5.14;100.00
55604;BME280;41468;48.838;9.330;2024-03-02T03:38:18;97160.09;;;5.01;100.00
55604;BME280;41468;48.838;9.330;2024-03-02T03:40:45;97154.91;;;4.92;100.00
55604;BME280;41468;48.838;9.330;2024-03-02T03:43:12;97167.28;;;4.93;100.00
55604;BME280;41468;48.838;9.330;2024-03-02T03:45:39;97161.38;;;4.87;100.00
55604;BME280;41468;48.838;9.330;2024-03-02T03:48:13;97158.09;;;4.98;100.00
55604;BME280;41468;48.838;9.330;2024-03-02T03:50:40;97161.34;;;5.07;100.00
55604;BME280;41468;48.838;9.330;2024-03-02T03:53:07;97160.41;;;5.19;100.00
55604;BME280;41468;48.838;9.330;2024-03-02T03:55:54;97159.41;;;5.07;100.00
55604;BME280;41468;48.838;9.330;2024-03-02T03:58:28;97160.63;;;5.10;100.00
55604;BME280;41468;48.838;9.330;2024-03-02T04:00:54;97154.19;;;5.18;100.00
55604;BME280;41468;48.838;9.330;2024-03-02T04:03:21;97155.41;;;5.21;100.00
55604;BME280;41468;48.838;9.330;2024-03-02T04:05:48;97155.34;;;5.17;100.00
55604;BME280;41468;48.838;9.330;2024-03-02T04:08:15;97146.59;;;5.24;100.00
55604;BME280;41468;48.838;9.330;2024-03-02T04:10:42;97155.28;;;5.14;100.00
55604;BME280;41468;48.838;9.330;2024-03-02T04:13:08;97161.06;;;5.12;100.00
55604;BME280;41468;48.838;9.330;2024-03-02T04:15:36;97156.66;;;5.04;100.00
55604;BME280;41468;48.838;9.330;2024-03-02T04:18:03;97160.84;;;5.01;100.00
55604;BME280;41468;48.838;9.330;2024-03-02T04:20:30;97162.16;;;4.88;100.00
55604;BME280;41468;48.838;9.330;2024-03-02T04:22:57;97157.81;;;5.03;100.00
55604;BME280;41468;48.838;9.330;2024-03-02T04:25:24;97162.78;;;5.01;100.00
55604;BME280;41468;48.838;9.330;2024-03-02T04:27:50;97164.09;;;4.87;100.00
55604;BME280;41468;48.838;9.330;2024-03-02T04:30:17;97162.16;;;4.88;100.00
55604;BME280;41468;48.838;9.330;2024-03-02T04:32:44;97160.38;;;4.96;100.00
55604;BME280;41468;48.838;9.330;2024-03-02T04:35:18;97160.81;;;4.98;100.00
55604;BME280;41468;48.838;9.330;2024-03-02T04:37:51;97162.09;;;4.84;100.00
55604;BME280;41468;48.838;9.330;2024-03-02T04:40:17;97160.53;;;4.83;100.00
55604;BME280;41468;48.838;9.330;2024-03-02T04:42:44;97163.31;;;4.68;100.00
55604;BME280;41468;48.838;9.330;2024-03-02T04:45:11;97159.25;;;4.58;100.00
55604;BME280;41468;48.838;9.330;2024-03-02T04:47:38;97156.13;;;4.56;100.00
55604;BME280;41468;48.838;9.330;2024-03-02T04:50:05;97160.59;;;4.48;100.00
55604;BME280;41468;48.838;9.330;2024-03-02T04:52:32;97159.81;;;4.48;100.00
55604;BME280;41468;48.838;9.330;2024-03-02T04:54:59;97162.25;;;4.53;100.00
55604;BME280;41468;48.838;9.330;2024-03-02T04:57:44;97159.75;;;4.44;100.00
55604;BME280;41468;48.838;9.330;2024-03-02T05:00:11;97160.59;;;4.29;100.00
55604;BME280;41468;48.838;9.330;2024-03-02T05:02:38;97163.38;;;4.32;100.00
55604;BME280;41468;48.838;9.330;2024-03-02T05:05:05;97164.84;;;4.30;100.00
55604;BME280;41468;48.838;9.330;2024-03-02T05:07:32;97167.50;;;4.26;100.00
55604;BME280;41468;48.838;9.330;2024-03-02T05:09:59;97166.28;;;4.24;100.00
55604;BME280;41468;48.838;9.330;2024-03-02T05:12:26;97163.28;;;4.29;100.00
55604;BME280;41468;48.838;9.330;2024-03-02T05:15:16;97156.84;;;4.33;100.00
55604;BME280;41468;48.838;9.330;2024-03-02T05:17:42;97155.78;;;4.38;100.00
55604;BME280;41468;48.838;9.330;2024-03-02T05:20:10;97165.38;;;4.35;100.00
55604;BME280;41468;48.838;9.330;2024-03-02T05:33:29;97162.75;;;4.58;100.00
55604;BME280;41468;48.838;9.330;2024-03-02T05:36:04;97159.47;;;4.49;100.00
55604;BME280;41468;48.838;9.330;2024-03-02T05:38:37;97164.66;;;4.58;100.00
55604;BME280;41468;48.838;9.330;2024-03-02T05:41:10;97162.19;;;4.49;100.00
55604;BME280;41468;48.838;9.330;2024-03-02T05:43:44;97170.78;;;4.55;100.00
55604;BME280;41468;48.838;9.330;2024-03-02T05:46:17;97171.63;;;4.59;100.00
55604;BME280;41468;48.838;9.330;2024-03-02T05:48:49;97165.28;;;4.51;100.00
55604;BME280;41468;48.838;9.330;2024-03-02T05:51:22;97167.44;;;4.61;100.00
55604;BME280;41468;48.838;9.330;2024-03-02T05:53:55;97158.91;;;4.59;100.00
55604;BME280;41468;48.838;9.330;2024-03-02T05:56:28;97164.53;;;4.51;100.00
55604;BME280;41468;48.838;9.330;2024-03-02T05:59:01;97170.63;;;4.48;100.00
55604;BME280;41468;48.838;9.330;2024-03-02T06:01:46;97177.75;;;4.56;100.00
55604;BME280;41468;48.838;9.330;2024-03-02T06:04:19;97175.91;;;4.60;100.00
55604;BME280;41468;48.838;9.330;2024-03-02T06:06:52;97180.13;;;4.57;100.00
55604;BME280;41468;48.838;9.330;2024-03-02T06:09:27;97175.97;;;4.44;100.00
55604;BME280;41468;48.838;9.330;2024-03-02T06:12:01;97178.75;;;4.48;100.00
55604;BME280;41468;48.838;9.330;2024-03-02T06:14:34;97180.13;;;4.57;100.00
55604;BME280;41468;48.838;9.330;2024-03-02T06:17:09;97182.09;;;4.60;100.00
55604;BME280;41468;48.838;9.330;2024-03-02T06:19:35;97185.59;;;4.61;100.00
55604;BME280;41468;48.838;9.330;2024-03-02T06:22:24;97182.31;;;4.71;100.00
55604;BME280;41468;48.838;9.330;2024-03-02T06:24:52;97185.72;;;4.87;100.00
55604;BME280;41468;48.838;9.330;2024-03-02T06:27:18;97192.06;;;4.95;100.00
55604;BME280;41468;48.838;9.330;2024-03-02T06:29:45;97187.94;;;4.82;100.00
55604;BME280;41468;48.838;9.330;2024-03-02T06:32:12;97187.38;;;4.92;100.00
55604;BME280;41468;48.838;9.330;2024-03-02T06:34:39;97195.97;;;4.98;100.00
55604;BME280;41468;48.838;9.330;2024-03-02T06:37:10;97201.59;;;4.89;100.00
55604;BME280;41468;48.838;9.330;2024-03-02T06:39:36;97194.38;;;4.97;100.00
55604;BME280;41468;48.838;9.330;2024-03-02T06:42:03;97197.03;;;4.93;100.00
55604;BME280;41468;48.838;9.330;2024-03-02T06:44:30;97202.94;;;4.79;100.00
55604;BME280;41468;48.838;9.330;2024-03-02T06:46:57;97193.78;;;4.84;100.00
55604;BME280;41468;48.838;9.330;2024-03-02T06:49:24;97201.94;;;4.87;100.00
55604;BME280;41468;48.838;9.330;2024-03-02T06:51:50;97198.53;;;4.91;100.00
55604;BME280;41468;48.838;9.330;2024-03-02T06:54:22;97198.25;;;4.76;100.00
55604;BME280;41468;48.838;9.330;2024-03-02T06:56:48;97205.09;;;4.90;100.00
55604;BME280;41468;48.838;9.330;2024-03-02T06:59:15;97204.81;;;4.95;100.00
55604;BME280;41468;48.838;9.330;2024-03-02T07:01:42;97209.63;;;5.05;100.00
55604;BME280;41468;48.838;9.330;2024-03-02T07:04:10;97205.00;;;5.05;100.00
55604;BME280;41468;48.838;9.330;2024-03-02T07:06:36;97216.19;;;5.04;100.00
55604;BME280;41468;48.838;9.330;2024-03-02T07:09:03;97204.34;;;5.12;100.00
55604;BME280;41468;48.838;9.330;2024-03-02T07:11:30;97212.03;;;5.10;100.00
55604;BME280;41468;48.838;9.330;2024-03-02T07:13:57;97213.47;;;5.04;100.00
55604;BME280;41468;48.838;9.330;2024-03-02T07:16:23;97208.50;;;5.06;100.00
55604;BME280;41468;48.838;9.330;2024-03-02T07:18:59;97211.81;;;4.99;100.00
55604;BME280;41468;48.838;9.330;2024-03-02T07:21:32;97206.22;;;4.88;100.00
55604;BME280;41468;48.838;9.330;2024-03-02T07:24:00;97199.19;;;5.26;100.00
55604;BME280;41468;48.838;9.330;2024-03-02T07:26:30;97205.84;;;5.52;100.00
55604;BME280;41468;48.838;9.330;2024-03-02T07:29:02;97205.94;;;6.05;100.00
55604;BME280;41468;48.838;9.330;2024-03-02T07:31:29;97218.75;;;6.95;100.00
55604;BME280;41468;48.838;9.330;2024-03-02T07:33:56;97215.47;;;7.50;100.00
55604;BME280;41468;48.838;9.330;2024-03-02T07:36:23;97213.00;;;8.37;98.50
55604;BME280;41468;48.838;9.330;2024-03-02T07:38:50;97208.13;;;8.61;93.87
55604;BME280;41468;48.838;9.330;2024-03-02T07:41:17;97213.78;;;8.34;93.92
55604;BME280;41468;48.838;9.330;2024-03-02T07:43:44;97213.03;;;7.86;96.46
55604;BME280;41468;48.838;9.330;2024-03-02T07:46:11;97211.13;;;8.42;95.28
55604;BME280;41468;48.838;9.330;2024-03-02T07:48:37;97214.53;;;9.01;90.90
55604;BME280;41468;48.838;9.330;2024-03-02T07:51:05;97208.81;;;9.63;87.64
55604;BME280;41468;48.838;9.330;2024-03-02T07:53:37;97217.78;;;10.39;79.54
55604;BME280;41468;48.838;9.330;2024-03-02T07:56:04;97218.56;;;10.43;80.72
55604;BME280;41468;48.838;9.330;2024-03-02T07:58:31;97226.75;;;9.68;83.72
55604;BME280;41468;48.838;9.330;2024-03-02T08:00:58;97227.50;;;9.43;86.65
55604;BME280;41468;48.838;9.330;2024-03-02T08:03:27;97218.31;;;8.78;91.41
55604;BME280;41468;48.838;9.330;2024-03-02T08:05:54;97220.84;;;8.43;95.41
55604;BME280;41468;48.838;9.330;2024-03-02T08:08:21;97222.84;;;7.97;98.91
55604;BME280;41468;48.838;9.330;2024-03-02T08:10:47;97215.09;;;8.00;100.00
55604;BME280;41468;48.838;9.330;2024-03-02T08:13:15;97209.59;;;7.92;100.00
55604;BME280;41468;48.838;9.330;2024-03-02T08:15:42;97212.72;;;7.94;100.00
55604;BME280;41468;48.838;9.330;2024-03-02T08:18:09;97212.72;;;7.94;100.00
55604;BME280;41468;48.838;9.330;2024-03-02T08:20:36;97215.00;;;7.85;100.00
55604;BME280;41468;48.838;9.330;2024-03-02T08:23:03;97204.13;;;7.85;100.00
55604;BME280;41468;48.838;9.330;2024-03-02T08:25:30;97217.47;;;8.05;100.00
55604;BME280;41468;48.838;9.330;2024-03-02T08:27:57;97208.91;;;8.03;100.00
55604;BME280;41468;48.838;9.330;2024-03-02T08:30:34;97194.19;;;8.11;100.00
55604;BME280;41468;48.838;9.330;2024-03-02T08:33:02;97196.69;;;8.34;99.61
55604;BME280;41468;48.838;9.330;2024-03-02T08:35:28;97202.09;;;8.30;100.00
55604;BME280;41468;48.838;9.330;2024-03-02T08:37:55;97204.09;;;8.37;99.90
55604;BME280;41468;48.838;9.330;2024-03-02T08:40:22;97191.38;;;8.52;98.33
55604;BME280;41468;48.838;9.330;2024-03-02T08:42:49;97192.63;;;8.72;97.20
55604;BME280;41468;48.838;9.330;2024-03-02T08:45:16;97192.94;;;8.56;97.13
55604;BME280;41468;48.838;9.330;2024-03-02T08:47:49;97191.41;;;8.59;96.19
55604;BME280;41468;48.838;9.330;2024-03-02T08:50:16;97193.03;;;8.71;95.15
55604;BME280;41468;48.838;9.330;2024-03-02T08:52:42;97192.31;;;8.92;94.67
55604;BME280;41468;48.838;9.330;2024-03-02T08:55:09;97199.31;;;8.93;93.10
55604;BME280;41468;48.838;9.330;2024-03-02T08:57:38;97194.75;;;9.22;90.91
55604;BME280;41468;48.838;9.330;2024-03-02T09:00:05;97185.81;;;9.39;89.43
55604;BME280;41468;48.838;9.330;2024-03-02T09:02:32;97197.88;;;9.45;89.16
55604;BME280;41468;48.838;9.330;2024-03-02T09:04:58;97194.41;;;9.66;85.22
55604;BME280;41468;48.838;9.330;2024-03-02T09:07:25;97184.69;;;9.98;83.82
55604;BME280;41468;48.838;9.330;2024-03-02T09:09:52;97189.38;;;10.29;83.61
55604;BME280;41468;48.838;9.330;2024-03-02T09:12:19;97195.16;;;10.56;79.65
55604;BME280;41468;48.838;9.330;2024-03-02T09:14:46;97191.56;;;10.81;78.38
55604;BME280;41468;48.838;9.330;2024-03-02T09:17:13;97194.81;;;11.28;76.99
55604;BME280;41468;48.838;9.330;2024-03-02T09:19:41;97192.75;;;11.46;74.10
55604;BME280;41468;48.838;9.330;2024-03-02T09:22:19;97191.22;;;11.45;73.99
55604;BME280;41468;48.838;9.330;2024-03-02T09:24:45;97190.31;;;11.63;72.45
55604;BME280;41468;48.838;9.330;2024-03-02T09:27:12;97195.16;;;11.97;71.74
55604;BME280;41468;48.838;9.330;2024-03-02T09:29:39;97188.25;;;12.26;71.28
55604;BME280;41468;48.838;9.330;2024-03-02T09:32:06;97190.44;;;12.42;67.35
55604;BME280;41468;48.838;9.330;2024-03-02T09:34:33;97186.03;;;12.52;66.60
55604;BME280;41468;48.838;9.330;2024-03-02T09:37:00;97187.94;;;12.89;66.92
55604;BME280;41468;48.838;9.330;2024-03-02T09:39:27;97179.06;;;13.12;64.86
55604;BME280;41468;48.838;9.330;2024-03-02T09:41:54;97185.97;;;12.93;64.32
55604;BME280;41468;48.838;9.330;2024-03-02T09:44:21;97180.47;;;13.28;62.57
55604;BME280;41468;48.838;9.330;2024-03-02T09:46:49;97174.78;;;13.11;63.28
55604;BME280;41468;48.838;9.330;2024-03-02T09:49:23;97170.78;;;13.16;63.03
55604;BME280;41468;48.838;9.330;2024-03-02T09:51:50;97176.06;;;13.03;61.89
55604;BME280;41468;48.838;9.330;2024-03-02T09:54:17;97170.13;;;13.39;62.40
55604;BME280;41468;48.838;9.330;2024-03-02T09:56:49;97160.50;;;13.54;59.38
55604;BME280;41468;48.838;9.330;2024-03-02T09:59:22;97169.38;;;13.62;59.78
55604;BME280;41468;48.838;9.330;2024-03-02T10:01:59;97165.78;;;13.41;58.86
55604;BME280;41468;48.838;9.330;2024-03-02T10:04:27;97158.72;;;13.40;59.67
55604;BME280;41468;48.838;9.330;2024-03-02T10:07:17;97166.22;;;13.63;57.60
55604;BME280;41468;48.838;9.330;2024-03-02T10:09:45;97165.16;;;14.04;57.28
55604;BME280;41468;48.838;9.330;2024-03-02T10:12:23;97162.97;;;14.19;56.17
55604;BME280;41468;48.838;9.330;2024-03-02T10:15:03;97164.03;;;14.45;56.54
55604;BME280;41468;48.838;9.330;2024-03-02T10:17:31;97157.97;;;14.34;55.48
55604;BME280;41468;48.838;9.330;2024-03-02T10:19:58;97158.53;;;14.25;55.52
55604;BME280;41468;48.838;9.330;2024-03-02T10:22:25;97147.53;;;14.25;55.57
55604;BME280;41468;48.838;9.330;2024-03-02T10:24:53;97146.06;;;14.84;54.63
55604;BME280;41468;48.838;9.330;2024-03-02T10:27:26;97140.63;;;14.80;52.61
55604;BME280;41468;48.838;9.330;2024-03-02T10:29:53;97144.34;;;14.90;53.18
55604;BME280;41468;48.838;9.330;2024-03-02T10:32:22;97142.75;;;15.29;53.83
55604;BME280;41468;48.838;9.330;2024-03-02T10:34:50;97142.72;;;15.13;49.69
55604;BME280;41468;48.838;9.330;2024-03-02T10:37:16;97135.28;;;15.10;50.97
55604;BME280;41468;48.838;9.330;2024-03-02T10:39:46;97135.09;;;15.00;50.44
55604;BME280;41468;48.838;9.330;2024-03-02T10:42:14;97139.56;;;14.74;49.80
55604;BME280;41468;48.838;9.330;2024-03-02T10:44:41;97139.78;;;15.20;51.13
55604;BME280;41468;48.838;9.330;2024-03-02T10:47:12;97132.53;;;15.62;50.19
55604;BME280;41468;48.838;9.330;2024-03-02T10:49:41;97134.28;;;15.73;48.95
55604;BME280;41468;48.838;9.330;2024-03-02T10:52:09;97133.91;;;16.03;49.00
55604;BME280;41468;48.838;9.330;2024-03-02T10:54:40;97128.50;;;15.67;48.52
55604;BME280;41468;48.838;9.330;2024-03-02T10:57:07;97126.94;;;16.15;48.34
55604;BME280;41468;48.838;9.330;2024-03-02T10:59:46;97120.69;;;16.27;47.73
55604;BME280;41468;48.838;9.330;2024-03-02T11:02:21;97106.50;;;16.71;46.44
55604;BME280;41468;48.838;9.330;2024-03-02T11:04:49;97102.09;;;16.73;46.42
55604;BME280;41468;48.838;9.330;2024-03-02T11:07:18;97108.69;;;17.43;46.26
55604;BME280;41468;48.838;9.330;2024-03-02T11:09:54;97108.69;;;17.69;44.80
55604;BME280;41468;48.838;9.330;2024-03-02T11:12:34;97105.22;;;18.03;44.21
55604;BME280;41468;48.838;9.330;2024-03-02T11:15:09;97097.38;;;18.81;42.43
55604;BME280;41468;48.838;9.330;2024-03-02T11:17:38;97093.41;;;19.22;40.93
55604;BME280;41468;48.838;9.330;2024-03-02T11:20:08;97086.81;;;19.69;40.40
55604;BME280;41468;48.838;9.330;2024-03-02T11:22:40;97084.53;;;19.77;40.39
55604;BME280;41468;48.838;9.330;2024-03-02T11:25:22;97080.88;;;20.63;39.68
55604;BME280;41468;48.838;9.330;2024-03-02T11:33:02;97059.44;;;22.44;36.03
55604;BME280;41468;48.838;9.330;2024-03-02T11:35:41;97058.59;;;22.98;35.76
55604;BME280;41468;48.838;9.330;2024-03-02T11:38:10;97059.19;;;22.18;36.38
55604;BME280;41468;48.838;9.330;2024-03-02T11:40:39;97060.84;;;21.53;36.69
55604;BME280;41468;48.838;9.330;2024-03-02T11:43:06;97054.13;;;21.69;37.35
55604;BME280;41468;48.838;9.330;2024-03-02T11:45:35;97052.44;;;22.64;35.65
55604;BME280;41468;48.838;9.330;2024-03-02T11:48:08;97043.72;;;22.71;35.79
55604;BME280;41468;48.838;9.330;2024-03-02T11:50:46;97036.69;;;22.31;36.10
55604;BME280;41468;48.838;9.330;2024-03-02T11:53:26;97032.53;;;21.88;35.58
55604;BME280;41468;48.838;9.330;2024-03-02T11:55:57;97033.44;;;21.70;36.80
55604;BME280;41468;48.838;9.330;2024-03-02T11:58:24;97024.22;;;22.02;36.80
55604;BME280;41468;48.838;9.330;2024-03-02T12:00:53;97014.56;;;22.52;36.18
55604;BME280;41468;48.838;9.330;2024-03-02T12:03:23;97013.81;;;22.12;35.77
55604;BME280;41468;48.838;9.330;2024-03-02T12:05:55;96998.75;;;22.04;36.79
55604;BME280;41468;48.838;9.330;2024-03-02T12:08:32;96996.59;;;21.36;36.63
55604;BME280;41468;48.838;9.330;2024-03-02T12:11:13;96988.09;;;21.06;37.20
55604;BME280;41468;48.838;9.330;2024-03-02T12:13:51;96999.06;;;20.67;37.77
55604;BME280;41468;48.838;9.330;2024-03-02T12:16:25;96993.88;;;20.42;38.36
55604;BME280;41468;48.838;9.330;2024-03-02T12:18:51;96994.81;;;19.65;39.31
55604;BME280;41468;48.838;9.330;2024-03-02T12:21:18;96990.09;;;18.44;40.84
55604;BME280;41468;48.838;9.330;2024-03-02T12:23:45;96988.91;;;18.54;41.04
55604;BME280;41468;48.838;9.330;2024-03-02T12:26:12;96988.84;;;17.92;42.29
55604;BME280;41468;48.838;9.330;2024-03-02T12:28:38;96982.41;;;18.17;42.96
55604;BME280;41468;48.838;9.330;2024-03-02T12:31:05;96979.81;;;18.23;42.63
55604;BME280;41468;48.838;9.330;2024-03-02T12:33:37;96975.06;;;18.23;41.46
55604;BME280;41468;48.838;9.330;2024-03-02T12:36:04;96974.69;;;17.90;42.52
55604;BME280;41468;48.838;9.330;2024-03-02T12:38:31;96968.91;;;17.97;42.37
55604;BME280;41468;48.838;9.330;2024-03-02T12:40:58;96961.97;;;18.15;43.20
55604;BME280;41468;48.838;9.330;2024-03-02T12:43:30;96961.94;;;18.05;43.66
55604;BME280;41468;48.838;9.330;2024-03-02T12:45:56;96956.84;;;17.82;42.76
55604;BME280;41468;48.838;9.330;2024-03-02T12:48:23;96945.47;;;17.80;43.39
55604;BME280;41468;48.838;9.330;2024-03-02T12:50:51;96948.59;;;17.69;42.49
55604;BME280;41468;48.838;9.330;2024-03-02T12:53:18;96953.00;;;17.66;43.15
55604;BME280;41468;48.838;9.330;2024-03-02T12:55:44;96951.16;;;17.16;44.02
55604;BME280;41468;48.838;9.330;2024-03-02T12:58:19;96956.31;;;17.39;44.48
55604;BME280;41468;48.838;9.330;2024-03-02T13:00:48;96944.59;;;17.35;44.86
55604;BME280;41468;48.838;9.330;2024-03-02T13:03:18;96944.41;;;17.64;44.29
55604;BME280;41468;48.838;9.330;2024-03-02T13:05:49;96953.81;;;17.19;43.90
55604;BME280;41468;48.838;9.330;2024-03-02T13:08:20;96941.69;;;17.17;44.65
55604;BME280;41468;48.838;9.330;2024-03-02T13:10:47;96943.28;;;17.40;45.01
55604;BME280;41468;48.838;9.330;2024-03-02T13:13:14;96941.09;;;17.35;43.65
55604;BME280;41468;48.838;9.330;2024-03-02T13:15:41;96942.56;;;17.14;43.91
55604;BME280;41468;48.838;9.330;2024-03-02T13:18:09;96932.72;;;17.26;43.60
55604;BME280;41468;48.838;9.330;2024-03-02T13:20:36;96934.88;;;17.43;43.50
55604;BME280;41468;48.838;9.330;2024-03-02T13:23:03;96929.31;;;17.56;43.57
55604;BME280;41468;48.838;9.330;2024-03-02T13:25:30;96929.16;;;17.38;43.42
55604;BME280;41468;48.838;9.330;2024-03-02T13:27:59;96921.53;;;17.42;43.60
55604;BME280;41468;48.838;9.330;2024-03-02T13:30:26;96921.88;;;17.44;42.54
55604;BME280;41468;48.838;9.330;2024-03-02T13:32:52;96915.78;;;17.49;42.51
55604;BME280;41468;48.838;9.330;2024-03-02T13:35:25;96914.88;;;17.17;42.19
55604;BME280;41468;48.838;9.330;2024-03-02T13:37:51;96909.44;;;17.27;43.78
55604;BME280;41468;48.838;9.330;2024-03-02T13:40:18;96909.84;;;17.38;42.70
55604;BME280;41468;48.838;9.330;2024-03-02T13:42:47;96917.34;;;17.37;42.97
55604;BME280;41468;48.838;9.330;2024-03-02T13:45:13;96915.78;;;17.14;42.42